Time;durP1;ratioP1;P1;durP2;ratioP2;P2;SDS_P1;SDS_P2;PMS_P1;PMS_P2;Temp;Humidity;BMP_temperature;BMP_pressure;BME280_temperature;BME280_humidity;BME280_pressure;Samples;Min_cycle;Max_cycle;Signal;HPM_P1;HPM_P2
2021/09/25 00:01:48;;;;;;;2.72;1.83;;;15.90;99.90;;;;;;5113282;28;20461;-75
2021/09/25 00:04:14;;;;;;;6.03;2.00;;;16.00;99.90;;;;;;5113717;28;20051;-75
2021/09/25 00:06:40;;;;;;;4.18;1.90;;;16.00;99.90;;;;;;5112871;28;20102;-75
2021/09/25 00:09:05;;;;;;;4.93;2.00;;;16.00;99.90;;;;;;5113097;28;20114;-74
2021/09/25 00:11:32;;;;;;;4.30;1.83;;;15.90;99.90;;;;;;5112351;28;20475;-74
2021/09/25 00:13:58;;;;;;;3.90;2.08;;;16.00;99.90;;;;;;5113904;28;20039;-75
2021/09/25 00:16:26;;;;;;;2.92;1.88;;;16.10;99.90;;;;;;5112464;28;20028;-75
2021/09/25 00:18:59;;;;;;;5.18;2.22;;;16.10;99.90;;;;;;5112862;28;20038;-75
2021/09/25 00:21:25;;;;;;;3.22;1.70;;;16.10;99.90;;;;;;5113887;28;20073;-77
2021/09/25 00:23:52;;;;;;;2.42;1.98;;;16.00;99.90;;;;;;5114923;28;20128;-76
2021/09/25 00:26:18;;;;;;;3.88;1.50;;;16.00;99.90;;;;;;5114230;28;20051;-75
2021/09/25 00:28:44;;;;;;;2.88;1.73;;;16.10;99.90;;;;;;5112360;28;20019;-74
2021/09/25 00:31:10;;;;;;;1.95;1.85;;;16.00;99.90;;;;;;5113023;28;20362;-74
2021/09/25 00:33:36;;;;;;;3.65;2.00;;;16.00;99.90;;;;;;5113759;28;20057;-74
2021/09/25 00:36:02;;;;;;;3.92;1.70;;;16.00;99.90;;;;;;5114095;28;20088;-73
2021/09/25 00:38:27;;;;;;;3.55;1.63;;;16.00;99.90;;;;;;5089147;28;20373;-74
2021/09/25 00:40:53;;;;;;;2.30;1.75;;;16.00;99.90;;;;;;5071635;28;20020;-73
2021/09/25 00:43:19;;;;;;;3.97;1.67;;;15.90;99.90;;;;;;5071336;28;20033;-73
2021/09/25 00:45:45;;;;;;;2.40;1.45;;;15.90;99.90;;;;;;5071863;28;20044;-73
2021/09/25 00:48:11;;;;;;;3.38;2.47;;;15.90;99.90;;;;;;5070645;28;20032;-74
2021/09/25 00:50:36;;;;;;;4.82;1.92;;;16.00;99.90;;;;;;5071993;28;20078;-74
2021/09/25 00:53:03;;;;;;;3.00;1.65;;;16.00;99.90;;;;;;5071175;28;20166;-73
2021/09/25 00:55:29;;;;;;;1.83;1.52;;;16.00;99.90;;;;;;5086725;28;20131;-74
2021/09/25 00:58:00;;;;;;;2.97;1.85;;;16.00;99.90;;;;;;5091841;28;20222;-74
2021/09/25 01:00:28;;;;;;;2.40;1.65;;;15.80;99.90;;;;;;5092172;28;20063;-73
2021/09/25 01:02:53;;;;;;;2.90;1.70;;;15.90;99.90;;;;;;5091977;28;20078;-74
2021/09/25 01:05:20;;;;;;;2.95;1.63;;;15.80;99.90;;;;;;5091301;28;20068;-73
2021/09/25 01:07:47;;;;;;;2.83;2.08;;;15.70;99.90;;;;;;5090746;28;20488;-74
2021/09/25 01:10:13;;;;;;;4.15;1.77;;;15.70;99.90;;;;;;5092994;28;20103;-74
2021/09/25 01:12:40;;;;;;;2.85;2.00;;;15.70;99.90;;;;;;5091032;28;20032;-74
2021/09/25 01:15:07;;;;;;;2.67;1.90;;;15.70;99.90;;;;;;5092358;28;20032;-73
2021/09/25 01:17:33;;;;;;;2.65;2.03;;;15.70;99.90;;;;;;5092324;28;20031;-73
2021/09/25 01:20:00;;;;;;;4.45;1.90;;;15.70;99.90;;;;;;5091448;28;20069;-74
2021/09/25 01:22:26;;;;;;;5.50;1.90;;;15.70;99.90;;;;;;5090236;28;20161;-75
2021/09/25 01:24:52;;;;;;;8.52;2.38;;;15.70;99.90;;;;;;5092257;28;20127;-74
2021/09/25 01:27:17;;;;;;;10.07;2.30;;;15.70;99.90;;;;;;5091345;28;20529;-74
2021/09/25 01:29:43;;;;;;;4.15;1.65;;;15.80;99.90;;;;;;5092191;28;20515;-74
2021/09/25 01:32:09;;;;;;;2.85;2.08;;;15.70;99.90;;;;;;5091469;28;20392;-74
2021/09/25 01:34:35;;;;;;;2.65;2.08;;;15.70;99.90;;;;;;5090629;28;20028;-74
2021/09/25 01:37:02;;;;;;;2.28;1.92;;;15.60;99.90;;;;;;5092591;28;20493;-74
2021/09/25 01:39:28;;;;;;;2.70;1.95;;;15.70;99.90;;;;;;5091892;28;20045;-74
2021/09/25 01:41:56;;;;;;;3.20;2.13;;;15.70;99.90;;;;;;5092307;28;20031;-74
2021/09/25 01:44:22;;;;;;;7.53;3.47;;;15.70;99.90;;;;;;5092111;28;20059;-74
2021/09/25 01:46:49;;;;;;;3.40;1.92;;;15.80;99.90;;;;;;5090010;28;20462;-74
2021/09/25 01:49:15;;;;;;;4.28;2.65;;;15.80;99.90;;;;;;5092394;28;20028;-74
2021/09/25 01:51:40;;;;;;;5.22;2.45;;;15.80;99.90;;;;;;5090055;28;20111;-74
2021/09/25 01:54:07;;;;;;;2.47;2.10;;;15.70;99.90;;;;;;5092063;28;20032;-74
2021/09/25 01:56:32;;;;;;;4.72;2.80;;;15.70;99.90;;;;;;5090261;28;20097;-74
2021/09/25 01:58:58;;;;;;;5.35;2.42;;;15.70;99.90;;;;;;5092279;28;20040;-73
2021/09/25 02:01:24;;;;;;;3.05;2.35;;;15.60;99.90;;;;;;5091911;28;20126;-73
2021/09/25 02:03:49;;;;;;;3.00;2.58;;;15.50;99.90;;;;;;5089933;28;20056;-74
2021/09/25 02:06:15;;;;;;;4.80;2.30;;;15.50;99.90;;;;;;5091911;28;20036;-74
2021/09/25 02:08:42;;;;;;;5.03;2.42;;;15.50;99.90;;;;;;5091480;28;20032;-73
2021/09/25 02:11:08;;;;;;;10.70;2.58;;;15.50;99.90;;;;;;5092074;28;20032;-72
2021/09/25 02:13:34;;;;;;;3.92;2.63;;;15.50;99.90;;;;;;5089961;28;20035;-74
2021/09/25 02:16:00;;;;;;;5.82;2.25;;;15.40;99.90;;;;;;5090568;28;20552;-73
2021/09/25 02:18:26;;;;;;;2.72;2.03;;;15.20;99.90;;;;;;5091426;28;20099;-74
2021/09/25 02:20:53;;;;;;;2.88;2.15;;;15.30;99.90;;;;;;5090389;28;20040;-73
2021/09/25 02:23:19;;;;;;;4.15;2.38;;;15.20;99.90;;;;;;5091209;28;20044;-73
2021/09/25 02:25:44;;;;;;;3.58;2.08;;;15.10;99.90;;;;;;5090599;28;20052;-73
2021/09/25 02:28:10;;;;;;;5.30;2.30;;;15.00;99.90;;;;;;5091374;28;20107;-73
2021/09/25 02:30:36;;;;;;;5.60;2.78;;;15.00;99.90;;;;;;5091305;28;20493;-73
2021/09/25 02:33:02;;;;;;;3.22;1.90;;;15.00;99.90;;;;;;5090137;28;20536;-73
2021/09/25 02:35:28;;;;;;;3.50;2.13;;;15.00;99.90;;;;;;5090659;28;20024;-75
2021/09/25 02:37:53;;;;;;;4.72;2.55;;;15.00;99.90;;;;;;5091536;28;20028;-73
2021/09/25 02:40:21;;;;;;;3.58;2.83;;;14.90;99.90;;;;;;5091388;28;20024;-74
2021/09/25 02:42:47;;;;;;;3.55;2.58;;;14.90;99.90;;;;;;5090760;28;20053;-74
2021/09/25 02:45:13;;;;;;;3.28;2.55;;;14.80;99.90;;;;;;5090038;28;20032;-74
2021/09/25 02:47:40;;;;;;;5.72;3.05;;;14.60;99.90;;;;;;5089529;28;20046;-74
2021/09/25 02:50:08;;;;;;;5.30;2.58;;;14.50;99.90;;;;;;5091006;28;20024;-75
2021/09/25 02:52:34;;;;;;;4.40;2.78;;;14.50;99.90;;;;;;5089272;28;20032;-75
2021/09/25 02:55:00;;;;;;;3.20;2.70;;;14.60;99.90;;;;;;5090923;28;20499;-74
2021/09/25 02:57:26;;;;;;;4.40;2.70;;;14.50;99.90;;;;;;5091198;28;20505;-75
2021/09/25 02:59:52;;;;;;;6.70;3.20;;;14.50;99.90;;;;;;5090620;28;20020;-75
2021/09/25 03:02:17;;;;;;;3.20;2.70;;;14.60;99.90;;;;;;5089781;28;20032;-75
2021/09/25 03:04:43;;;;;;;8.45;3.17;;;14.50;99.90;;;;;;5089668;28;20035;-74
2021/09/25 03:07:09;;;;;;;4.82;3.05;;;14.60;99.90;;;;;;5090331;28;20020;-74
2021/09/25 03:09:35;;;;;;;3.03;2.38;;;14.60;99.90;;;;;;5090717;28;20419;-74
2021/09/25 03:12:01;;;;;;;4.57;2.85;;;14.60;99.90;;;;;;5089896;28;20028;-74
2021/09/25 03:14:27;;;;;;;2.88;2.67;;;14.50;99.90;;;;;;5090638;28;20411;-74
2021/09/25 03:16:53;;;;;;;4.63;2.65;;;14.50;99.90;;;;;;5089223;28;20042;-74
2021/09/25 03:19:19;;;;;;;3.80;2.90;;;14.50;99.90;;;;;;5089695;28;20024;-74
2021/09/25 03:21:44;;;;;;;4.40;2.50;;;14.50;99.90;;;;;;5089073;28;20036;-74
2021/09/25 03:24:10;;;;;;;3.55;3.05;;;14.50;99.90;;;;;;5088907;28;20497;-74
2021/09/25 03:26:36;;;;;;;4.50;2.67;;;14.40;99.90;;;;;;5090292;28;20047;-75
2021/09/25 03:29:02;;;;;;;4.32;2.85;;;14.40;99.90;;;;;;5090352;28;20492;-74
2021/09/25 03:31:28;;;;;;;7.35;2.72;;;14.40;99.90;;;;;;5092542;28;20043;-74
2021/09/25 03:33:53;;;;;;;2.97;2.60;;;14.40;99.90;;;;;;5094202;28;20028;-74
2021/09/25 03:36:19;;;;;;;3.55;3.17;;;14.40;99.90;;;;;;5093743;28;20027;-75
2021/09/25 03:38:45;;;;;;;5.40;2.65;;;14.40;99.90;;;;;;5093046;28;20454;-74
2021/09/25 03:41:10;;;;;;;5.60;2.92;;;14.30;99.90;;;;;;5093639;28;20119;-74
2021/09/25 03:43:36;;;;;;;3.42;3.05;;;14.20;99.90;;;;;;5092744;28;20105;-74
2021/09/25 03:46:02;;;;;;;3.88;2.40;;;14.30;99.90;;;;;;5094424;28;20028;-74
2021/09/25 03:48:27;;;;;;;4.95;3.25;;;14.20;99.90;;;;;;5093448;28;20047;-74
2021/09/25 03:50:53;;;;;;;4.88;3.15;;;14.30;99.90;;;;;;5094086;28;20024;-74
2021/09/25 03:53:20;;;;;;;3.85;2.55;;;14.30;99.90;;;;;;5093010;28;20123;-74
2021/09/25 03:55:46;;;;;;;6.95;3.00;;;14.30;99.90;;;;;;5093560;28;20445;-74
2021/09/25 03:58:12;;;;;;;3.65;2.70;;;14.40;99.90;;;;;;5093258;28;20024;-74
2021/09/25 04:00:42;;;;;;;4.45;2.90;;;14.30;99.90;;;;;;5092658;28;20061;-74
2021/09/25 04:03:12;;;;;;;5.53;2.80;;;14.40;99.90;;;;;;5094742;28;20025;-74
2021/09/25 04:05:41;;;;;;;3.13;2.15;;;14.40;99.90;;;;;;5092452;28;20036;-74
2021/09/25 04:08:07;;;;;;;4.88;2.95;;;14.40;99.90;;;;;;5092745;28;20081;-74
2021/09/25 04:10:33;;;;;;;4.45;2.50;;;14.40;99.90;;;;;;5094589;28;20027;-73
2021/09/25 04:12:59;;;;;;;5.47;2.90;;;14.50;99.90;;;;;;5092695;28;20124;-74
2021/09/25 04:15:25;;;;;;;3.30;2.60;;;14.50;99.90;;;;;;5092693;28;20052;-74
2021/09/25 04:17:52;;;;;;;7.95;2.92;;;14.50;99.90;;;;;;5092255;28;20028;-74
2021/09/25 04:20:17;;;;;;;3.70;2.63;;;14.50;99.90;;;;;;5092796;28;20365;-74
2021/09/25 04:22:43;;;;;;;3.35;2.60;;;14.50;99.90;;;;;;5091648;28;20039;-73
2021/09/25 04:25:09;;;;;;;4.07;3.03;;;14.40;99.90;;;;;;5091388;28;20438;-74
2021/09/25 04:27:35;;;;;;;3.17;2.38;;;14.40;99.90;;;;;;5092262;28;20024;-75
2021/09/25 04:30:03;;;;;;;7.55;2.92;;;14.40;99.90;;;;;;5092615;28;20031;-74
2021/09/25 04:32:28;;;;;;;5.13;2.92;;;14.50;99.90;;;;;;5093151;28;20066;-74
2021/09/25 04:34:55;;;;;;;3.83;2.88;;;14.40;99.90;;;;;;5090903;28;20331;-74
2021/09/25 04:37:21;;;;;;;5.05;3.25;;;14.40;99.90;;;;;;5091341;28;20032;-74
2021/09/25 04:39:47;;;;;;;5.88;2.70;;;14.30;99.90;;;;;;5090762;28;20381;-74
2021/09/25 04:42:13;;;;;;;5.20;2.83;;;14.40;99.90;;;;;;5091994;28;20035;-75
2021/09/25 04:44:39;;;;;;;3.83;3.05;;;14.40;99.90;;;;;;5091724;28;20031;-75
2021/09/25 04:47:04;;;;;;;8.65;2.78;;;14.50;99.90;;;;;;5092918;28;20028;-74
2021/09/25 04:49:30;;;;;;;5.38;3.10;;;14.50;99.90;;;;;;5091566;28;20174;-75
2021/09/25 04:51:56;;;;;;;6.78;2.40;;;14.50;99.90;;;;;;5091751;28;20032;-75
2021/09/25 04:54:22;;;;;;;5.95;2.40;;;14.50;99.90;;;;;;5092575;28;20071;-75
2021/09/25 04:56:47;;;;;;;3.45;2.60;;;14.50;99.90;;;;;;5090588;28;20537;-74
2021/09/25 04:59:13;;;;;;;3.72;2.70;;;14.50;99.90;;;;;;5090946;28;20381;-75
2021/09/25 05:01:39;;;;;;;4.70;2.33;;;14.40;99.90;;;;;;5090531;28;20048;-75
2021/09/25 05:04:07;;;;;;;4.22;2.58;;;14.40;99.90;;;;;;5091868;28;20115;-75
2021/09/25 05:06:33;;;;;;;3.92;2.83;;;14.40;99.90;;;;;;5090917;28;20025;-73
2021/09/25 05:08:59;;;;;;;5.30;3.00;;;14.30;99.90;;;;;;5091666;28;20032;-74
2021/09/25 05:11:25;;;;;;;4.05;3.58;;;14.20;99.90;;;;;;5090794;28;20027;-74
2021/09/25 05:13:51;;;;;;;5.18;3.05;;;14.30;99.90;;;;;;5089648;28;20028;-74
2021/09/25 05:16:17;;;;;;;5.10;2.92;;;14.30;99.90;;;;;;5091862;28;20461;-75
2021/09/25 05:18:43;;;;;;;4.35;3.38;;;14.20;99.90;;;;;;5091239;28;20499;-75
2021/09/25 05:21:09;;;;;;;6.13;4.10;;;14.20;99.90;;;;;;5090358;28;20024;-74
2021/09/25 05:23:37;;;;;;;7.38;3.40;;;14.20;99.90;;;;;;5090529;28;20439;-75
2021/09/25 05:26:06;;;;;;;5.07;3.33;;;14.20;99.90;;;;;;5053131;28;1125909;-75
2021/09/25 05:28:32;;;;;;;3.72;3.00;;;14.30;99.90;;;;;;5093056;28;20310;-75
2021/09/25 05:30:58;;;;;;;5.70;3.50;;;14.10;99.90;;;;;;5092310;28;20242;-75
2021/09/25 05:33:23;;;;;;;6.25;3.88;;;14.10;99.90;;;;;;5091488;28;20032;-74
2021/09/25 05:35:49;;;;;;;8.18;3.40;;;14.10;99.90;;;;;;5090811;28;20436;-75
2021/09/25 05:38:15;;;;;;;7.22;3.58;;;13.90;99.90;;;;;;5091428;28;20028;-74
2021/09/25 05:40:40;;;;;;;5.75;3.40;;;14.00;99.90;;;;;;5091887;28;20042;-76
2021/09/25 05:43:06;;;;;;;9.77;4.32;;;14.10;99.90;;;;;;5091118;28;20028;-75
2021/09/25 05:45:32;;;;;;;7.25;3.78;;;14.10;99.90;;;;;;5092625;28;20047;-75
2021/09/25 05:47:57;;;;;;;3.53;3.13;;;14.10;99.90;;;;;;5092115;28;20099;-75
2021/09/25 05:50:23;;;;;;;6.45;4.00;;;14.20;99.90;;;;;;5093022;28;20061;-75
2021/09/25 05:52:49;;;;;;;6.70;4.25;;;14.00;99.90;;;;;;5091428;28;20415;-76
2021/09/25 05:55:15;;;;;;;5.82;3.22;;;13.80;99.90;;;;;;5091344;28;20537;-75
2021/09/25 05:57:44;;;;;;;8.88;4.18;;;13.90;99.90;;;;;;5091982;28;20327;-76
2021/09/25 06:00:11;;;;;;;6.90;3.95;;;13.80;99.90;;;;;;5092256;28;20114;-75
2021/09/25 06:02:40;;;;;;;6.13;4.57;;;13.80;99.90;;;;;;5092239;28;20028;-75
2021/09/25 06:05:08;;;;;;;9.25;5.10;;;13.80;99.90;;;;;;5090717;28;20380;-76
2021/09/25 06:07:34;;;;;;;6.32;4.72;;;13.70;99.90;;;;;;5091287;28;20028;-75
2021/09/25 06:10:00;;;;;;;9.57;5.00;;;13.70;99.90;;;;;;5090506;28;20079;-74
2021/09/25 06:12:26;;;;;;;9.43;5.00;;;13.90;99.90;;;;;;5090690;28;20028;-74
2021/09/25 06:14:53;;;;;;;10.82;4.57;;;14.10;99.90;;;;;;5089848;28;20024;-74
2021/09/25 06:17:20;;;;;;;5.53;4.10;;;14.30;99.90;;;;;;5090583;28;20080;-74
2021/09/25 06:19:45;;;;;;;6.93;4.60;;;14.40;99.90;;;;;;5090358;28;20260;-74
2021/09/25 06:22:11;;;;;;;8.88;4.60;;;14.60;99.90;;;;;;5091510;28;20024;-75
2021/09/25 06:24:38;;;;;;;7.55;4.75;;;14.70;99.90;;;;;;5089937;28;20485;-74
2021/09/25 06:27:04;;;;;;;8.52;4.72;;;14.80;99.90;;;;;;5089782;28;20036;-75
2021/09/25 06:29:30;;;;;;;10.75;4.30;;;15.00;99.90;;;;;;5092164;28;20081;-74
2021/09/25 06:31:55;;;;;;;8.25;4.85;;;15.00;99.90;;;;;;5091294;28;20027;-76
2021/09/25 06:34:22;;;;;;;5.95;4.40;;;15.00;99.90;;;;;;5090109;28;20528;-75
2021/09/25 06:36:48;;;;;;;7.85;5.00;;;15.20;99.90;;;;;;5091369;28;20020;-75
2021/09/25 06:39:14;;;;;;;7.82;4.97;;;15.30;99.90;;;;;;5091353;28;20480;-75
2021/09/25 06:41:39;;;;;;;7.43;4.55;;;15.40;99.90;;;;;;5090355;28;20038;-74
2021/09/25 06:44:05;;;;;;;9.43;5.45;;;15.60;99.90;;;;;;5089520;28;20138;-74
2021/09/25 06:46:32;;;;;;;9.00;5.13;;;15.70;99.90;;;;;;5089938;28;20060;-75
2021/09/25 06:48:57;;;;;;;8.63;4.57;;;15.90;99.90;;;;;;5089665;28;20068;-74
2021/09/25 06:51:23;;;;;;;9.90;4.70;;;16.10;99.90;;;;;;5090070;28;20089;-74
2021/09/25 06:53:48;;;;;;;14.27;5.05;;;16.20;99.90;;;;;;5089452;28;20028;-75
2021/09/25 06:56:14;;;;;;;12.43;4.80;;;16.50;99.90;;;;;;5091088;28;20481;-75
2021/09/25 06:58:40;;;;;;;7.25;3.95;;;16.80;99.90;;;;;;5090079;28;20082;-74
2021/09/25 07:01:06;;;;;;;8.80;4.45;;;17.10;99.90;;;;;;5089349;28;20024;-74
2021/09/25 07:03:32;;;;;;;11.35;5.35;;;17.10;99.90;;;;;;5089685;28;20123;-74
2021/09/25 07:05:57;;;;;;;11.15;4.63;;;17.20;99.90;;;;;;5090510;28;20108;-74
2021/09/25 07:08:23;;;;;;;6.63;4.40;;;17.10;99.90;;;;;;5089758;28;20115;-74
2021/09/25 07:10:50;;;;;;;10.05;4.60;;;17.30;99.90;;;;;;5090118;28;20027;-74
2021/09/25 07:13:16;;;;;;;5.65;4.70;;;17.70;99.90;;;;;;5090932;28;20028;-74
2021/09/25 07:15:42;;;;;;;11.02;4.88;;;17.70;99.90;;;;;;5090765;28;20410;-74
2021/09/25 07:18:09;;;;;;;13.88;6.35;;;18.10;99.90;;;;;;5090708;28;20034;-74
2021/09/25 07:20:35;;;;;;;13.02;5.90;;;18.50;99.90;;;;;;5090648;28;20457;-74
2021/09/25 07:23:00;;;;;;;8.57;5.43;;;18.60;99.90;;;;;;5090154;28;20124;-74
2021/09/25 07:25:28;;;;;;;20.90;6.68;;;18.90;99.90;;;;;;5089076;28;20488;-74
2021/09/25 07:27:55;;;;;;;8.88;4.90;;;19.00;99.90;;;;;;5088805;28;20047;-75
2021/09/25 07:30:21;;;;;;;6.25;4.80;;;19.10;99.90;;;;;;5089489;28;20024;-74
2021/09/25 07:32:47;;;;;;;13.98;5.50;;;19.30;99.90;;;;;;5088819;28;20056;-74
2021/09/25 07:35:14;;;;;;;21.95;5.63;;;19.30;99.90;;;;;;5089625;28;20427;-74
2021/09/25 07:37:41;;;;;;;13.15;5.05;;;19.90;99.90;;;;;;5089473;28;20378;-74
2021/09/25 07:40:08;;;;;;;9.13;4.75;;;19.80;99.90;;;;;;5088715;28;20515;-74
2021/09/25 07:42:33;;;;;;;6.07;4.63;;;20.20;99.90;;;;;;5088759;28;20085;-73
2021/09/25 07:44:59;;;;;;;8.70;5.63;;;20.40;99.90;;;;;;5089751;28;20020;-75
2021/09/25 07:47:25;;;;;;;8.23;4.38;;;20.60;99.90;;;;;;5090557;28;20111;-74
2021/09/25 07:49:51;;;;;;;11.00;5.32;;;20.80;99.90;;;;;;5088527;28;20104;-74
2021/09/25 07:52:17;;;;;;;14.75;4.70;;;20.20;99.90;;;;;;5088876;28;20024;-75
2021/09/25 07:54:43;;;;;;;11.82;5.20;;;20.20;99.90;;;;;;5089209;28;20044;-74
2021/09/25 07:57:09;;;;;;;12.10;5.53;;;20.60;99.90;;;;;;5089630;28;20466;-73
2021/09/25 07:59:35;;;;;;;11.60;5.07;;;20.40;99.90;;;;;;5090522;28;20035;-74
2021/09/25 08:02:00;;;;;;;6.70;4.88;;;20.60;99.90;;;;;;5087959;28;20024;-74
2021/09/25 08:04:26;;;;;;;8.50;4.78;;;20.90;99.90;;;;;;5088578;28;20100;-74
2021/09/25 08:06:52;;;;;;;11.95;4.93;;;21.30;99.90;;;;;;5087570;28;20044;-75
2021/09/25 08:09:20;;;;;;;23.45;4.18;;;21.80;99.90;;;;;;5086692;28;20032;-67
2021/09/25 08:11:47;;;;;;;5.10;3.58;;;22.00;99.90;;;;;;5085247;28;20024;-68
2021/09/25 08:14:13;;;;;;;12.27;5.22;;;22.30;99.90;;;;;;5089823;28;20473;-69
2021/09/25 08:16:39;;;;;;;5.65;3.53;;;22.50;99.60;;;;;;5091729;28;20032;-71
2021/09/25 08:19:05;;;;;;;6.80;4.90;;;22.30;99.90;;;;;;5091299;28;20028;-70
2021/09/25 08:21:30;;;;;;;7.22;4.50;;;22.00;99.10;;;;;;5092703;28;20462;-70
2021/09/25 08:23:56;;;;;;;4.88;2.85;;;22.20;99.20;;;;;;5091501;28;20127;-70
2021/09/25 08:26:22;;;;;;;7.63;3.80;;;22.60;99.90;;;;;;5092754;28;20077;-70
2021/09/25 08:28:47;;;;;;;6.38;3.28;;;23.00;98.70;;;;;;5091948;28;20062;-68
2021/09/25 08:31:13;;;;;;;6.30;3.75;;;23.30;98.80;;;;;;5091467;28;20020;-70
2021/09/25 08:33:39;;;;;;;7.82;5.55;;;23.70;99.90;;;;;;5091170;28;20474;-73
2021/09/25 08:36:05;;;;;;;5.82;4.32;;;23.50;96.40;;;;;;5091038;28;20036;-75
2021/09/25 08:38:31;;;;;;;5.63;4.20;;;23.50;97.20;;;;;;5088659;28;20040;-74
2021/09/25 08:40:59;;;;;;;10.05;5.10;;;23.90;99.60;;;;;;5075890;28;20373;-75
2021/09/25 08:43:25;;;;;;;9.90;5.60;;;23.90;99.90;;;;;;5091551;28;20104;-76
2021/09/25 08:46:09;;;;;;;7.15;5.13;;;23.90;99.90;;;;;;5091084;28;20092;-76
2021/09/25 08:48:37;;;;;;;8.25;6.05;;;24.10;99.90;;;;;;5091684;28;20123;-74
2021/09/25 08:51:03;;;;;;;8.85;5.63;;;23.80;99.90;;;;;;5092376;28;20024;-76
2021/09/25 08:53:29;;;;;;;8.25;5.10;;;23.50;99.90;;;;;;5091250;28;20036;-76
2021/09/25 08:55:55;;;;;;;9.02;5.63;;;23.50;99.90;;;;;;5092639;28;20038;-76
2021/09/25 08:58:21;;;;;;;11.25;5.97;;;23.20;99.90;;;;;;5091608;28;20068;-75
2021/09/25 09:00:48;;;;;;;11.85;6.53;;;23.30;99.90;;;;;;5092118;28;20055;-76
2021/09/25 09:03:38;;;;;;;9.40;7.13;;;23.40;99.90;;;;;;5091924;28;20056;-76
2021/09/25 09:06:18;;;;;;;8.98;7.22;;;23.20;99.90;;;;;;5090776;28;20103;-75
2021/09/25 09:08:48;;;;;;;10.25;7.55;;;23.60;99.90;;;;;;5090897;28;20078;-76
2021/09/25 09:11:15;;;;;;;10.27;7.82;;;23.30;99.90;;;;;;5085954;28;20033;-76
2021/09/25 09:13:42;;;;;;;9.68;7.85;;;23.60;99.90;;;;;;5071025;28;20098;-76
2021/09/25 09:16:09;;;;;;;13.73;8.20;;;24.20;99.90;;;;;;5070105;28;20157;-75
2021/09/25 09:18:39;;;;;;;10.15;8.48;;;24.40;99.50;;;;;;5071370;28;20029;-75
2021/09/25 09:21:34;;;;;;;11.77;9.07;;;24.60;99.80;;;;;;5071902;28;20063;-75
2021/09/25 09:24:03;;;;;;;11.63;9.38;;;24.60;99.90;;;;;;5061743;28;20123;-74
2021/09/25 09:26:39;;;;;;;14.88;7.68;;;24.70;94.80;;;;;;5070805;28;20028;-76
2021/09/25 09:29:07;;;;;;;10.40;7.07;;;24.90;94.90;;;;;;5070394;28;20037;-76
2021/09/25 09:31:35;;;;;;;8.45;7.10;;;25.30;94.50;;;;;;5070264;28;20033;-73
2021/09/25 09:34:06;;;;;;;9.60;8.52;;;25.10;94.60;;;;;;5071558;28;20029;-75
2021/09/25 09:36:34;;;;;;;9.43;8.48;;;25.20;94.40;;;;;;5071964;28;20021;-76
2021/09/25 09:39:14;;;;;;;15.45;8.32;;;25.30;94.30;;;;;;5072142;28;20035;-72
2021/09/25 09:41:49;;;;;;;12.23;8.82;;;25.80;93.90;;;;;;5088948;28;20127;-71
2021/09/25 09:44:18;;;;;;;10.60;8.15;;;26.20;93.10;;;;;;5090133;28;20140;-74
2021/09/25 09:46:45;;;;;;;8.98;7.05;;;26.60;93.10;;;;;;5090988;28;20035;-71
2021/09/25 09:49:28;;;;;;;9.25;6.65;;;27.20;92.80;;;;;;5086598;28;20028;-67
2021/09/25 09:52:07;;;;;;;7.75;6.28;;;27.20;92.20;;;;;;5088646;28;20024;-69
2021/09/25 09:54:41;;;;;;;11.38;8.65;;;27.10;92.40;;;;;;5067972;28;20036;-68
2021/09/25 09:57:12;;;;;;;10.18;8.57;;;26.90;91.70;;;;;;5087715;28;20025;-68
2021/09/25 09:59:40;;;;;;;9.77;8.63;;;26.10;91.90;;;;;;5069362;28;20112;-70
2021/09/25 10:02:06;;;;;;;9.68;8.40;;;26.30;92.30;;;;;;5091767;28;20110;-72
2021/09/25 10:04:33;;;;;;;8.00;6.60;;;26.30;92.30;;;;;;5088046;28;20028;-71
2021/09/25 10:06:58;;;;;;;8.80;7.28;;;26.60;91.80;;;;;;5088707;28;20484;-70
2021/09/25 10:09:26;;;;;;;8.20;5.78;;;27.20;91.30;;;;;;5090569;28;20050;-70
2021/09/25 10:11:59;;;;;;;9.95;7.43;;;27.00;92.20;;;;;;5089259;28;20370;-73
2021/09/25 10:14:27;;;;;;;9.45;6.93;;;27.80;90.90;;;;;;5084448;28;20037;-70
2021/09/25 10:16:55;;;;;;;12.93;7.60;;;27.90;90.80;;;;;;5076132;28;20024;-73
2021/09/25 10:19:26;;;;;;;10.02;9.00;;;27.80;90.50;;;;;;5087880;28;20114;-74
2021/09/25 10:21:55;;;;;;;8.88;6.80;;;27.30;90.30;;;;;;5099091;28;20027;-72
2021/09/25 10:24:43;;;;;;;11.13;6.38;;;27.40;91.50;;;;;;5116963;27;20417;-71
2021/09/25 10:27:10;;;;;;;9.52;6.70;;;28.10;91.30;;;;;;5079533;28;20023;-76
2021/09/25 10:29:50;;;;;;;9.32;5.95;;;28.30;89.80;;;;;;5105730;28;20038;-70
2021/09/25 10:32:20;;;;;;;27.50;8.10;;;28.70;90.80;;;;;;5101615;28;20078;-80
2021/09/25 10:34:53;;;;;;;6.95;6.05;;;28.60;90.40;;;;;;5091476;28;20039;-81
2021/09/25 10:37:20;;;;;;;13.48;6.55;;;29.00;90.90;;;;;;5088646;28;20089;-80
2021/09/25 10:39:57;;;;;;;10.18;6.07;;;28.90;89.20;;;;;;5089694;28;20035;-79
2021/09/25 10:42:47;;;;;;;7.63;5.05;;;28.50;89.90;;;;;;5091534;28;20127;-81
2021/09/25 10:45:27;;;;;;;8.23;5.38;;;27.80;87.90;;;;;;5092573;28;20784;-82
2021/09/25 10:48:24;;;;;;;6.82;5.25;;;27.70;89.60;;;;;;5092765;28;20039;-80
2021/09/25 10:51:06;;;;;;;8.13;4.93;;;27.70;88.30;;;;;;5056210;28;20043;-81
2021/09/25 10:53:34;;;;;;;3.90;3.50;;;28.40;89.00;;;;;;5089396;28;20032;-81
2021/09/25 10:56:03;;;;;;;4.70;4.00;;;28.70;90.20;;;;;;5089571;28;20039;-82
2021/09/25 10:58:35;;;;;;;9.07;4.05;;;29.10;89.80;;;;;;5089820;28;20024;-81
2021/09/25 11:01:15;;;;;;;6.80;3.95;;;28.60;87.20;;;;;;5091105;28;20081;-80
2021/09/25 11:03:46;;;;;;;5.50;3.67;;;28.90;88.10;;;;;;5091322;28;20050;-82
2021/09/25 11:06:27;;;;;;;7.57;3.95;;;29.50;85.60;;;;;;5089199;28;20032;-82
2021/09/25 11:09:16;;;;;;;7.82;3.83;;;29.30;87.70;;;;;;5091340;28;20191;-82
2021/09/25 11:11:57;;;;;;;5.28;3.40;;;29.60;86.70;;;;;;5092060;28;20106;-81
2021/09/25 11:14:29;;;;;;;5.72;4.65;;;30.00;91.10;;;;;;5092910;28;20039;-81
2021/09/25 11:17:10;;;;;;;11.38;5.95;;;28.90;87.50;;;;;;5093203;28;20039;-73
2021/09/25 11:19:57;;;;;;;7.55;4.03;;;28.70;91.20;;;;;;5093596;28;20024;-81
2021/09/25 11:22:34;;;;;;;4.97;4.45;;;28.70;92.10;;;;;;5094409;28;20130;-82
2021/09/25 11:25:09;;;;;;;5.72;4.15;;;28.80;92.10;;;;;;5088883;28;20051;-79
2021/09/25 11:27:38;;;;;;;4.28;3.45;;;28.60;91.10;;;;;;5090067;28;20027;-81
2021/09/25 11:30:20;;;;;;;5.65;4.57;;;28.50;92.00;;;;;;5090726;28;20020;-80
2021/09/25 11:32:54;;;;;;;8.68;5.53;;;28.80;91.20;;;;;;5089388;28;20043;-80
2021/09/25 11:35:24;;;;;;;6.03;3.92;;;28.30;90.80;;;;;;5089596;28;20117;-80
2021/09/25 11:38:13;;;;;;;5.10;3.65;;;29.50;91.90;;;;;;5088806;28;20067;-81
2021/09/25 11:40:42;;;;;;;7.72;4.38;;;30.20;91.40;;;;;;5090531;28;20466;-80
2021/09/25 11:43:16;;;;;;;6.27;4.33;;;30.10;90.70;;;;;;5088104;28;20481;-79
2021/09/25 11:45:44;;;;;;;4.25;3.65;;;29.90;90.20;;;;;;5088998;28;20040;-77
2021/09/25 11:48:12;;;;;;;6.70;3.97;;;29.10;79.80;;;;;;5088026;28;20062;-78
2021/09/25 11:50:41;;;;;;;7.03;3.95;;;28.20;81.70;;;;;;5088548;28;20046;-79
2021/09/25 11:53:13;;;;;;;4.25;2.95;;;28.70;82.90;;;;;;5091258;28;20144;-77
2021/09/25 11:55:40;;;;;;;4.50;3.13;;;29.80;80.80;;;;;;5092614;28;20044;-78
2021/09/25 11:58:10;;;;;;;5.30;3.65;;;29.80;78.20;;;;;;5092978;28;20036;-77
2021/09/25 12:00:48;;;;;;;5.90;3.58;;;28.50;80.20;;;;;;5092963;28;20066;-78
2021/09/25 12:03:14;;;;;;;5.65;3.42;;;28.80;79.80;;;;;;5092013;28;20040;-77
2021/09/25 12:05:45;;;;;;;3.28;2.90;;;29.00;80.90;;;;;;5092347;28;20036;-77
2021/09/25 12:08:13;;;;;;;8.23;3.88;;;29.50;81.40;;;;;;5093046;28;20381;-77
2021/09/25 12:10:50;;;;;;;3.70;3.38;;;29.20;78.30;;;;;;5092295;28;20035;-77
2021/09/25 12:13:21;;;;;;;3.55;3.25;;;29.00;79.30;;;;;;5091396;28;20024;-77
2021/09/25 12:15:49;;;;;;;5.10;3.08;;;29.20;77.00;;;;;;5093708;28;20024;-76
2021/09/25 12:18:22;;;;;;;8.45;3.90;;;29.80;78.80;;;;;;5091447;28;20020;-77
2021/09/25 12:21:08;;;;;;;3.83;2.78;;;30.30;78.70;;;;;;5092224;28;20122;-76
2021/09/25 12:24:04;;;;;;;5.63;3.67;;;30.30;77.70;;;;;;5093637;28;20043;-75
2021/09/25 12:26:33;;;;;;;3.97;2.92;;;30.30;77.60;;;;;;5091553;28;20097;-76
2021/09/25 12:29:01;;;;;;;4.18;3.33;;;30.20;76.30;;;;;;5092161;28;20043;-77
2021/09/25 12:31:31;;;;;;;5.38;3.35;;;30.50;76.50;;;;;;5091393;28;20082;-77
2021/09/25 12:34:22;;;;;;;6.65;3.58;;;30.60;75.50;;;;;;5093403;28;20026;-76
2021/09/25 12:36:50;;;;;;;4.40;2.78;;;30.90;74.20;;;;;;5094114;28;20027;-77
2021/09/25 12:39:29;;;;;;;3.97;2.35;;;30.50;74.20;;;;;;5091575;28;20028;-75
2021/09/25 12:41:56;;;;;;;2.75;2.40;;;30.80;76.50;;;;;;5092066;28;20381;-72
2021/09/25 12:44:24;;;;;;;3.30;2.90;;;31.20;74.40;;;;;;5089548;28;20064;-51
2021/09/25 12:46:57;;;;;;;3.60;2.78;;;30.30;73.50;;;;;;5073516;28;20468;-50
2021/09/25 12:49:35;;;;;;;3.67;2.72;;;29.90;75.90;;;;;;5071986;28;20028;-52
2021/09/25 12:52:13;;;;;;;7.03;2.65;;;29.60;75.50;;;;;;5072166;28;20438;-69